This is the latest recevied weather packets stored in our database for station/object OM2RC-6. If no packets are shown the sender has not sent any weather packets the latest 10 day(s).
| Time | Temp. | Humidity | Pressure | Rain* | Wind** | Luminosity | Snow |
|---|---|---|---|---|---|---|---|
| 1777446902 | 10° C | 56% | 1025.1 hPa | - | - | - | - |
| 1777446601 | 10° C | 59% | 1025.2 hPa | - | - | - | - |
| 1777446300 | 9.44° C | 62% | 1025.2 hPa | - | - | - | - |
| 1777445999 | 9.44° C | 60% | 1025.2 hPa | - | - | - | - |
| 1777445698 | 8.89° C | 64% | 1025.2 hPa | - | - | - | - |
| 1777445096 | 8.33° C | 60% | 1025.1 hPa | - | - | - | - |
| 1777444795 | 8.33° C | 60% | 1025.1 hPa | - | - | - | - |
| 1777444194 | 7.78° C | 67% | 1025.2 hPa | - | - | - | - |
| 1777443592 | 7.78° C | 65% | 1025.2 hPa | - | - | - | - |
| 1777443291 | 7.22° C | 66% | 1025.2 hPa | - | - | - | - |
| 1777442990 | 7.22° C | 70% | 1025.2 hPa | - | - | - | - |
| 1777442388 | 7.22° C | 71% | 1025.1 hPa | - | - | - | - |
| 1777442087 | 7.78° C | 69% | 1025.2 hPa | - | - | - | - |
| 1777441485 | 10° C | 62% | 1025 hPa | - | - | - | - |
| 1777441184 | 9.44° C | 62% | 1025 hPa | - | - | - | - |
| 1777440881 | 9.44° C | 65% | 1024.9 hPa | - | - | - | - |
| 1777440580 | 8.33° C | 70% | 1024.9 hPa | - | - | - | - |
| 1777440279 | 7.22° C | 76% | 1024.9 hPa | - | - | - | - |
| 1777439978 | 11.11° C | 54% | 1024.8 hPa | - | - | - | - |
| 1777439677 | 10° C | 59% | 1024.8 hPa | - | - | - | - |
| 1777439376 | 8.33° C | 66% | 1024.8 hPa | - | - | - | - |
| 1777439075 | 5.56° C | 86% | 1024.9 hPa | - | - | - | - |
| 1777438473 | 7.22° C | 82% | 1024.7 hPa | - | - | - | - |
| 1777438172 | 5.56° C | 88% | 1024.8 hPa | - | - | - | - |
| 1777437871 | 6.67° C | 80% | 1024.7 hPa | - | - | - | - |
* Rain since midnight (hover to see other rain measurements)
** Current wind speed in m/s (hover to see current wind gust speed)